sensor_id;sensor_type;location;lat;lon;timestamp;temperature;humidity
13794;DHT22;31160;49.500;7.772;2022-07-22T00:00:48;18.00;99.90
13794;DHT22;31160;49.500;7.772;2022-07-22T00:03:15;17.90;99.90
13794;DHT22;31160;49.500;7.772;2022-07-22T00:05:42;17.90;99.90
13794;DHT22;31160;49.500;7.772;2022-07-22T00:08:09;17.90;99.90
13794;DHT22;31160;49.500;7.772;2022-07-22T00:10:36;17.90;99.90
13794;DHT22;31160;49.500;7.772;2022-07-22T00:13:03;17.90;99.90
13794;DHT22;31160;49.500;7.772;2022-07-22T00:15:30;17.90;99.90
13794;DHT22;31160;49.500;7.772;2022-07-22T00:17:57;17.90;99.90
13794;DHT22;31160;49.500;7.772;2022-07-22T00:20:24;17.90;99.90
13794;DHT22;31160;49.500;7.772;2022-07-22T00:22:51;18.00;99.90
13794;DHT22;31160;49.500;7.772;2022-07-22T00:25:18;18.00;99.90
13794;DHT22;31160;49.500;7.772;2022-07-22T00:27:44;18.00;99.90
13794;DHT22;31160;49.500;7.772;2022-07-22T00:30:12;17.90;99.90
13794;DHT22;31160;49.500;7.772;2022-07-22T00:32:39;17.90;99.90
13794;DHT22;31160;49.500;7.772;2022-07-22T00:35:06;17.90;99.90
13794;DHT22;31160;49.500;7.772;2022-07-22T00:37:33;17.90;99.90
13794;DHT22;31160;49.500;7.772;2022-07-22T00:40:00;17.90;99.90
13794;DHT22;31160;49.500;7.772;2022-07-22T00:42:27;17.60;99.90
13794;DHT22;31160;49.500;7.772;2022-07-22T00:44:54;17.60;99.90
13794;DHT22;31160;49.500;7.772;2022-07-22T00:47:23;17.60;99.90
13794;DHT22;31160;49.500;7.772;2022-07-22T00:49:50;17.60;99.90
13794;DHT22;31160;49.500;7.772;2022-07-22T00:52:18;17.70;99.90
13794;DHT22;31160;49.500;7.772;2022-07-22T00:54:46;17.60;99.90
13794;DHT22;31160;49.500;7.772;2022-07-22T00:57:13;17.50;99.90
13794;DHT22;31160;49.500;7.772;2022-07-22T00:59:40;17.40;99.90
13794;DHT22;31160;49.500;7.772;2022-07-22T01:02:07;17.30;99.90
13794;DHT22;31160;49.500;7.772;2022-07-22T01:04:34;17.30;99.90
13794;DHT22;31160;49.500;7.772;2022-07-22T01:07:01;17.30;99.90
13794;DHT22;31160;49.500;7.772;2022-07-22T01:09:28;17.40;99.90
13794;DHT22;31160;49.500;7.772;2022-07-22T01:11:55;17.40;99.90
13794;DHT22;31160;49.500;7.772;2022-07-22T01:14:22;17.40;99.90
13794;DHT22;31160;49.500;7.772;2022-07-22T01:16:49;17.30;99.90
13794;DHT22;31160;49.500;7.772;2022-07-22T01:19:16;17.30;99.90
13794;DHT22;31160;49.500;7.772;2022-07-22T01:21:43;17.30;99.90
13794;DHT22;31160;49.500;7.772;2022-07-22T01:24:10;17.20;99.90
13794;DHT22;31160;49.500;7.772;2022-07-22T01:26:37;17.20;99.90
13794;DHT22;31160;49.500;7.772;2022-07-22T01:29:04;17.30;99.90
13794;DHT22;31160;49.500;7.772;2022-07-22T01:31:31;17.20;99.90
13794;DHT22;31160;49.500;7.772;2022-07-22T01:33:58;17.20;99.90
13794;DHT22;31160;49.500;7.772;2022-07-22T01:36:25;17.10;99.90
13794;DHT22;31160;49.500;7.772;2022-07-22T01:38:53;17.10;99.90
13794;DHT22;31160;49.500;7.772;2022-07-22T01:41:21;17.00;99.90
13794;DHT22;31160;49.500;7.772;2022-07-22T01:43:48;17.00;99.90
13794;DHT22;31160;49.500;7.772;2022-07-22T01:46:15;16.90;99.90
13794;DHT22;31160;49.500;7.772;2022-07-22T01:48:43;16.90;99.90
13794;DHT22;31160;49.500;7.772;2022-07-22T01:51:10;16.80;99.90
13794;DHT22;31160;49.500;7.772;2022-07-22T01:53:38;16.80;99.90
13794;DHT22;31160;49.500;7.772;2022-07-22T01:56:05;16.80;99.90
13794;DHT22;31160;49.500;7.772;2022-07-22T01:58:36;16.80;99.90
13794;DHT22;31160;49.500;7.772;2022-07-22T02:01:07;16.80;99.90
13794;DHT22;31160;49.500;7.772;2022-07-22T02:03:35;16.80;99.90
13794;DHT22;31160;49.500;7.772;2022-07-22T02:06:03;16.80;99.90
13794;DHT22;31160;49.500;7.772;2022-07-22T02:08:31;16.80;99.90
13794;DHT22;31160;49.500;7.772;2022-07-22T02:11:09;16.80;99.90
13794;DHT22;31160;49.500;7.772;2022-07-22T02:13:47;16.80;99.90
13794;DHT22;31160;49.500;7.772;2022-07-22T02:16:15;16.80;99.90
13794;DHT22;31160;49.500;7.772;2022-07-22T02:18:47;16.80;99.90
13794;DHT22;31160;49.500;7.772;2022-07-22T02:21:13;16.80;99.90
13794;DHT22;31160;49.500;7.772;2022-07-22T02:23:40;16.70;99.90
13794;DHT22;31160;49.500;7.772;2022-07-22T02:26:08;16.70;99.90
13794;DHT22;31160;49.500;7.772;2022-07-22T02:28:35;16.60;99.90
13794;DHT22;31160;49.500;7.772;2022-07-22T02:31:02;16.60;99.90
13794;DHT22;31160;49.500;7.772;2022-07-22T02:33:29;16.60;99.90
13794;DHT22;31160;49.500;7.772;2022-07-22T02:35:57;16.60;99.90
13794;DHT22;31160;49.500;7.772;2022-07-22T02:38:26;16.50;99.90
13794;DHT22;31160;49.500;7.772;2022-07-22T02:40:52;16.40;99.90
13794;DHT22;31160;49.500;7.772;2022-07-22T02:43:20;16.50;99.90
13794;DHT22;31160;49.500;7.772;2022-07-22T02:45:47;16.50;99.90
13794;DHT22;31160;49.500;7.772;2022-07-22T02:48:14;16.40;99.90
13794;DHT22;31160;49.500;7.772;2022-07-22T02:50:45;16.40;99.90
13794;DHT22;31160;49.500;7.772;2022-07-22T02:53:16;16.30;99.90
13794;DHT22;31160;49.500;7.772;2022-07-22T02:55:43;16.30;99.90
13794;DHT22;31160;49.500;7.772;2022-07-22T02:58:10;16.20;99.90
13794;DHT22;31160;49.500;7.772;2022-07-22T03:00:40;16.20;99.90
13794;DHT22;31160;49.500;7.772;2022-07-22T03:03:07;16.20;99.90
13794;DHT22;31160;49.500;7.772;2022-07-22T03:05:34;16.20;99.90
13794;DHT22;31160;49.500;7.772;2022-07-22T03:08:16;16.20;99.90
13794;DHT22;31160;49.500;7.772;2022-07-22T03:10:43;16.20;99.90
13794;DHT22;31160;49.500;7.772;2022-07-22T03:13:11;16.10;99.90
13794;DHT22;31160;49.500;7.772;2022-07-22T03:15:37;16.10;99.90
13794;DHT22;31160;49.500;7.772;2022-07-22T03:18:04;16.00;99.90
13794;DHT22;31160;49.500;7.772;2022-07-22T03:20:31;15.90;99.90
13794;DHT22;31160;49.500;7.772;2022-07-22T03:23:00;15.90;99.90
13794;DHT22;31160;49.500;7.772;2022-07-22T03:25:27;15.90;99.90
13794;DHT22;31160;49.500;7.772;2022-07-22T03:27:54;15.90;99.90
13794;DHT22;31160;49.500;7.772;2022-07-22T03:30:21;16.00;99.90
13794;DHT22;31160;49.500;7.772;2022-07-22T03:32:48;16.00;99.90
13794;DHT22;31160;49.500;7.772;2022-07-22T03:35:18;16.00;99.90
13794;DHT22;31160;49.500;7.772;2022-07-22T03:37:46;16.00;99.90
13794;DHT22;31160;49.500;7.772;2022-07-22T03:40:12;15.90;99.90
13794;DHT22;31160;49.500;7.772;2022-07-22T03:42:43;15.90;99.90
13794;DHT22;31160;49.500;7.772;2022-07-22T03:45:13;15.90;99.90
13794;DHT22;31160;49.500;7.772;2022-07-22T03:47:40;15.80;99.90
13794;DHT22;31160;49.500;7.772;2022-07-22T03:50:08;15.80;99.90
13794;DHT22;31160;49.500;7.772;2022-07-22T03:52:35;15.80;99.90
13794;DHT22;31160;49.500;7.772;2022-07-22T03:55:06;15.70;99.90
13794;DHT22;31160;49.500;7.772;2022-07-22T03:57:33;15.70;99.90
13794;DHT22;31160;49.500;7.772;2022-07-22T04:00:06;15.60;99.90
13794;DHT22;31160;49.500;7.772;2022-07-22T04:02:43;15.60;99.90
13794;DHT22;31160;49.500;7.772;2022-07-22T04:05:46;15.40;99.90
13794;DHT22;31160;49.500;7.772;2022-07-22T04:08:18;15.40;99.90
13794;DHT22;31160;49.500;7.772;2022-07-22T04:10:45;15.50;99.90
13794;DHT22;31160;49.500;7.772;2022-07-22T04:13:12;15.50;99.90
13794;DHT22;31160;49.500;7.772;2022-07-22T04:15:47;15.60;99.90
13794;DHT22;31160;49.500;7.772;2022-07-22T04:18:14;15.60;99.90
13794;DHT22;31160;49.500;7.772;2022-07-22T04:20:45;15.80;99.90
13794;DHT22;31160;49.500;7.772;2022-07-22T04:23:18;15.90;99.90
13794;DHT22;31160;49.500;7.772;2022-07-22T04:25:50;15.90;99.90
13794;DHT22;31160;49.500;7.772;2022-07-22T04:28:17;16.00;99.90
13794;DHT22;31160;49.500;7.772;2022-07-22T04:30:43;16.10;99.90
13794;DHT22;31160;49.500;7.772;2022-07-22T04:33:11;16.10;99.90
13794;DHT22;31160;49.500;7.772;2022-07-22T04:35:37;16.30;99.90
13794;DHT22;31160;49.500;7.772;2022-07-22T04:38:16;16.30;99.90
13794;DHT22;31160;49.500;7.772;2022-07-22T04:40:54;16.40;99.90
13794;DHT22;31160;49.500;7.772;2022-07-22T04:43:23;16.40;99.90
13794;DHT22;31160;49.500;7.772;2022-07-22T04:45:50;16.40;99.90
13794;DHT22;31160;49.500;7.772;2022-07-22T04:48:17;16.50;99.90
13794;DHT22;31160;49.500;7.772;2022-07-22T04:50:44;16.60;99.90
13794;DHT22;31160;49.500;7.772;2022-07-22T04:53:11;16.70;99.90
13794;DHT22;31160;49.500;7.772;2022-07-22T04:55:38;16.70;99.90
13794;DHT22;31160;49.500;7.772;2022-07-22T04:58:06;16.70;99.90
13794;DHT22;31160;49.500;7.772;2022-07-22T05:00:37;16.80;99.90
13794;DHT22;31160;49.500;7.772;2022-07-22T05:03:04;16.90;99.90
13794;DHT22;31160;49.500;7.772;2022-07-22T05:05:31;17.00;99.90
13794;DHT22;31160;49.500;7.772;2022-07-22T05:07:58;16.90;99.90
13794;DHT22;31160;49.500;7.772;2022-07-22T05:10:27;17.00;99.90
13794;DHT22;31160;49.500;7.772;2022-07-22T05:12:54;17.00;99.90
13794;DHT22;31160;49.500;7.772;2022-07-22T05:15:21;17.10;99.90
13794;DHT22;31160;49.500;7.772;2022-07-22T05:17:47;17.10;99.90
13794;DHT22;31160;49.500;7.772;2022-07-22T05:20:27;17.20;99.90
13794;DHT22;31160;49.500;7.772;2022-07-22T05:22:54;17.40;99.90
13794;DHT22;31160;49.500;7.772;2022-07-22T05:25:24;17.50;99.90
13794;DHT22;31160;49.500;7.772;2022-07-22T05:27:52;17.60;99.90
13794;DHT22;31160;49.500;7.772;2022-07-22T05:30:24;18.30;99.90
13794;DHT22;31160;49.500;7.772;2022-07-22T05:32:52;21.70;99.90
13794;DHT22;31160;49.500;7.772;2022-07-22T05:35:36;25.70;99.10
13794;DHT22;31160;49.500;7.772;2022-07-22T05:38:03;29.20;90.70
13794;DHT22;31160;49.500;7.772;2022-07-22T05:40:32;31.10;80.70
13794;DHT22;31160;49.500;7.772;2022-07-22T05:42:59;32.60;73.70
13794;DHT22;31160;49.500;7.772;2022-07-22T05:45:25;33.60;69.10
13794;DHT22;31160;49.500;7.772;2022-07-22T05:47:52;34.30;65.30
13794;DHT22;31160;49.500;7.772;2022-07-22T05:50:19;34.60;63.60
13794;DHT22;31160;49.500;7.772;2022-07-22T05:52:46;34.20;62.10
13794;DHT22;31160;49.500;7.772;2022-07-22T05:55:13;34.50;61.70
13794;DHT22;31160;49.500;7.772;2022-07-22T05:57:41;33.80;62.40
13794;DHT22;31160;49.500;7.772;2022-07-22T06:00:09;33.90;62.50
13794;DHT22;31160;49.500;7.772;2022-07-22T06:02:42;34.60;60.60
13794;DHT22;31160;49.500;7.772;2022-07-22T06:05:14;35.00;59.10
13794;DHT22;31160;49.500;7.772;2022-07-22T06:08:01;33.80;60.70
13794;DHT22;31160;49.500;7.772;2022-07-22T06:10:38;33.30;61.60
13794;DHT22;31160;49.500;7.772;2022-07-22T06:13:04;33.60;61.40
13794;DHT22;31160;49.500;7.772;2022-07-22T06:15:31;33.60;61.60
13794;DHT22;31160;49.500;7.772;2022-07-22T06:18:00;33.10;62.10
13794;DHT22;31160;49.500;7.772;2022-07-22T06:20:26;30.90;65.50
13794;DHT22;31160;49.500;7.772;2022-07-22T06:22:53;28.90;68.80
13794;DHT22;31160;49.500;7.772;2022-07-22T06:25:22;26.10;75.90
13794;DHT22;31160;49.500;7.772;2022-07-22T06:28:12;24.20;82.90
13794;DHT22;31160;49.500;7.772;2022-07-22T06:30:39;23.20;90.00
13794;DHT22;31160;49.500;7.772;2022-07-22T06:33:06;22.80;91.70
13794;DHT22;31160;49.500;7.772;2022-07-22T06:35:33;22.50;93.40
13794;DHT22;31160;49.500;7.772;2022-07-22T06:38:00;22.50;94.30
13794;DHT22;31160;49.500;7.772;2022-07-22T06:40:42;22.40;95.30
13794;DHT22;31160;49.500;7.772;2022-07-22T06:43:27;22.40;95.80
13794;DHT22;31160;49.500;7.772;2022-07-22T06:46:14;22.20;96.70
13794;DHT22;31160;49.500;7.772;2022-07-22T06:48:46;22.10;97.20
13794;DHT22;31160;49.500;7.772;2022-07-22T06:51:14;22.40;97.20
13794;DHT22;31160;49.500;7.772;2022-07-22T06:53:43;22.40;97.30
13794;DHT22;31160;49.500;7.772;2022-07-22T06:56:14;22.60;96.90
13794;DHT22;31160;49.500;7.772;2022-07-22T06:58:42;22.60;96.90
13794;DHT22;31160;49.500;7.772;2022-07-22T07:01:10;22.40;97.20
13794;DHT22;31160;49.500;7.772;2022-07-22T07:03:52;22.40;97.90
13794;DHT22;31160;49.500;7.772;2022-07-22T07:06:19;22.40;97.80
13794;DHT22;31160;49.500;7.772;2022-07-22T07:09:02;22.40;97.70
13794;DHT22;31160;49.500;7.772;2022-07-22T07:11:30;22.30;97.90
13794;DHT22;31160;49.500;7.772;2022-07-22T07:13:57;22.50;98.00
13794;DHT22;31160;49.500;7.772;2022-07-22T07:16:24;22.50;98.60
13794;DHT22;31160;49.500;7.772;2022-07-22T07:18:51;22.50;98.00
13794;DHT22;31160;49.500;7.772;2022-07-22T07:21:19;22.60;98.00
13794;DHT22;31160;49.500;7.772;2022-07-22T07:23:46;22.60;97.90
13794;DHT22;31160;49.500;7.772;2022-07-22T07:26:13;22.90;97.50
13794;DHT22;31160;49.500;7.772;2022-07-22T07:28:40;23.10;97.20
13794;DHT22;31160;49.500;7.772;2022-07-22T07:31:26;22.90;96.80
13794;DHT22;31160;49.500;7.772;2022-07-22T07:33:53;22.70;97.10
13794;DHT22;31160;49.500;7.772;2022-07-22T07:36:21;22.70;97.10
13794;DHT22;31160;49.500;7.772;2022-07-22T07:38:49;22.70;97.10
13794;DHT22;31160;49.500;7.772;2022-07-22T07:41:17;22.60;97.40
13794;DHT22;31160;49.500;7.772;2022-07-22T07:43:47;22.50;97.20
13794;DHT22;31160;49.500;7.772;2022-07-22T07:46:14;22.40;97.30
13794;DHT22;31160;49.500;7.772;2022-07-22T07:48:41;22.40;97.80
13794;DHT22;31160;49.500;7.772;2022-07-22T07:51:08;22.40;97.90
13794;DHT22;31160;49.500;7.772;2022-07-22T07:53:35;22.30;98.00
13794;DHT22;31160;49.500;7.772;2022-07-22T07:56:02;22.20;98.50
13794;DHT22;31160;49.500;7.772;2022-07-22T07:58:29;22.20;98.50
13794;DHT22;31160;49.500;7.772;2022-07-22T08:01:04;22.30;98.40
13794;DHT22;31160;49.500;7.772;2022-07-22T08:03:31;22.80;98.20
13794;DHT22;31160;49.500;7.772;2022-07-22T08:05:58;23.10;97.10
13794;DHT22;31160;49.500;7.772;2022-07-22T08:08:27;23.00;96.70
13794;DHT22;31160;49.500;7.772;2022-07-22T08:10:56;22.80;97.10
13794;DHT22;31160;49.500;7.772;2022-07-22T08:13:38;23.10;97.00
13794;DHT22;31160;49.500;7.772;2022-07-22T08:16:16;23.00;97.00
13794;DHT22;31160;49.500;7.772;2022-07-22T08:18:47;23.10;96.80
13794;DHT22;31160;49.500;7.772;2022-07-22T08:21:14;23.00;97.30
13794;DHT22;31160;49.500;7.772;2022-07-22T08:23:51;23.10;96.90
13794;DHT22;31160;49.500;7.772;2022-07-22T08:26:18;23.10;96.30
13794;DHT22;31160;49.500;7.772;2022-07-22T08:28:45;23.20;96.40
13794;DHT22;31160;49.500;7.772;2022-07-22T08:31:12;23.10;96.90
13794;DHT22;31160;49.500;7.772;2022-07-22T08:33:39;23.10;97.10
13794;DHT22;31160;49.500;7.772;2022-07-22T08:36:07;23.30;96.40
13794;DHT22;31160;49.500;7.772;2022-07-22T08:38:34;23.50;96.30
13794;DHT22;31160;49.500;7.772;2022-07-22T08:41:02;23.20;96.00
13794;DHT22;31160;49.500;7.772;2022-07-22T08:43:35;23.00;96.80
13794;DHT22;31160;49.500;7.772;2022-07-22T08:46:02;23.20;96.50
13794;DHT22;31160;49.500;7.772;2022-07-22T08:48:40;23.50;96.40
13794;DHT22;31160;49.500;7.772;2022-07-22T08:51:25;23.80;96.00
13794;DHT22;31160;49.500;7.772;2022-07-22T08:54:15;23.90;95.10
13794;DHT22;31160;49.500;7.772;2022-07-22T08:56:46;24.10;95.00
13794;DHT22;31160;49.500;7.772;2022-07-22T08:59:13;24.00;95.10
13794;DHT22;31160;49.500;7.772;2022-07-22T09:02:06;23.90;95.20
13794;DHT22;31160;49.500;7.772;2022-07-22T09:05:01;23.90;95.60
13794;DHT22;31160;49.500;7.772;2022-07-22T09:07:48;24.10;94.60
13794;DHT22;31160;49.500;7.772;2022-07-22T09:10:33;24.00;95.10
13794;DHT22;31160;49.500;7.772;2022-07-22T09:13:33;23.90;94.70
13794;DHT22;31160;49.500;7.772;2022-07-22T09:16:42;23.90;94.80
13794;DHT22;31160;49.500;7.772;2022-07-22T09:19:31;24.00;94.80
13794;DHT22;31160;49.500;7.772;2022-07-22T09:22:43;24.10;94.90
13794;DHT22;31160;49.500;7.772;2022-07-22T09:25:32;24.50;94.00
13794;DHT22;31160;49.500;7.772;2022-07-22T09:28:21;24.70;93.90
13794;DHT22;31160;49.500;7.772;2022-07-22T09:31:25;24.80;93.90
13794;DHT22;31160;49.500;7.772;2022-07-22T09:34:04;24.90;92.60
13794;DHT22;31160;49.500;7.772;2022-07-22T09:36:31;24.60;92.70
13794;DHT22;31160;49.500;7.772;2022-07-22T09:38:58;24.50;93.30
13794;DHT22;31160;49.500;7.772;2022-07-22T09:41:26;24.60;93.10
13794;DHT22;31160;49.500;7.772;2022-07-22T09:43:53;24.70;93.30
13794;DHT22;31160;49.500;7.772;2022-07-22T09:46:36;24.20;93.00
13794;DHT22;31160;49.500;7.772;2022-07-22T09:49:39;24.30;93.40
13794;DHT22;31160;49.500;7.772;2022-07-22T09:52:26;24.60;93.20
13794;DHT22;31160;49.500;7.772;2022-07-22T09:55:11;24.90;92.50
13794;DHT22;31160;49.500;7.772;2022-07-22T09:57:40;25.00;91.90
13794;DHT22;31160;49.500;7.772;2022-07-22T10:00:08;25.20;91.80
13794;DHT22;31160;49.500;7.772;2022-07-22T10:05:17;25.30;91.40
13794;DHT22;31160;49.500;7.772;2022-07-22T10:07:46;25.30;91.30
13794;DHT22;31160;49.500;7.772;2022-07-22T10:10:15;25.40;91.10
13794;DHT22;31160;49.500;7.772;2022-07-22T10:12:43;25.60;90.90
13794;DHT22;31160;49.500;7.772;2022-07-22T10:15:11;25.60;91.00
13794;DHT22;31160;49.500;7.772;2022-07-22T10:17:47;25.60;90.90
13794;DHT22;31160;49.500;7.772;2022-07-22T10:20:23;25.70;90.70
13794;DHT22;31160;49.500;7.772;2022-07-22T10:23:02;25.80;90.10
13794;DHT22;31160;49.500;7.772;2022-07-22T10:25:51;25.80;89.60
13794;DHT22;31160;49.500;7.772;2022-07-22T10:28:33;25.80;89.50
13794;DHT22;31160;49.500;7.772;2022-07-22T10:31:22;25.90;90.00
13794;DHT22;31160;49.500;7.772;2022-07-22T10:33:55;26.00;88.90
13794;DHT22;31160;49.500;7.772;2022-07-22T10:39:09;26.10;87.70
13794;DHT22;31160;49.500;7.772;2022-07-22T10:41:38;26.30;88.00
13794;DHT22;31160;49.500;7.772;2022-07-22T10:44:08;26.40;88.10
13794;DHT22;31160;49.500;7.772;2022-07-22T10:46:49;26.40;86.50
13794;DHT22;31160;49.500;7.772;2022-07-22T10:49:24;26.30;86.10
13794;DHT22;31160;49.500;7.772;2022-07-22T10:52:11;26.30;86.70
13794;DHT22;31160;49.500;7.772;2022-07-22T10:55:16;26.40;86.30
13794;DHT22;31160;49.500;7.772;2022-07-22T10:57:43;26.70;84.50
13794;DHT22;31160;49.500;7.772;2022-07-22T11:00:10;26.60;85.20
13794;DHT22;31160;49.500;7.772;2022-07-22T11:02:37;26.60;85.50
13794;DHT22;31160;49.500;7.772;2022-07-22T11:05:06;26.80;86.10
13794;DHT22;31160;49.500;7.772;2022-07-22T11:07:33;27.00;86.10
13794;DHT22;31160;49.500;7.772;2022-07-22T11:10:13;26.90;85.30
13794;DHT22;31160;49.500;7.772;2022-07-22T11:12:48;26.90;85.10
13794;DHT22;31160;49.500;7.772;2022-07-22T11:15:15;26.80;85.90
13794;DHT22;31160;49.500;7.772;2022-07-22T11:17:43;27.00;84.50
13794;DHT22;31160;49.500;7.772;2022-07-22T11:20:12;27.10;84.00
13794;DHT22;31160;49.500;7.772;2022-07-22T11:22:40;27.00;82.90
13794;DHT22;31160;49.500;7.772;2022-07-22T11:25:10;26.90;82.60
13794;DHT22;31160;49.500;7.772;2022-07-22T11:27:37;27.10;82.60
13794;DHT22;31160;49.500;7.772;2022-07-22T11:30:04;26.90;81.90
13794;DHT22;31160;49.500;7.772;2022-07-22T11:32:41;26.90;82.80
13794;DHT22;31160;49.500;7.772;2022-07-22T11:35:12;27.30;81.60
13794;DHT22;31160;49.500;7.772;2022-07-22T11:37:39;27.50;81.20
13794;DHT22;31160;49.500;7.772;2022-07-22T11:40:07;27.70;80.70
13794;DHT22;31160;49.500;7.772;2022-07-22T11:42:35;28.00;80.10
13794;DHT22;31160;49.500;7.772;2022-07-22T11:45:02;28.10;79.10
13794;DHT22;31160;49.500;7.772;2022-07-22T11:47:29;28.10;79.30
13794;DHT22;31160;49.500;7.772;2022-07-22T11:49:56;28.10;79.30
13794;DHT22;31160;49.500;7.772;2022-07-22T11:52:22;28.20;78.40
13794;DHT22;31160;49.500;7.772;2022-07-22T11:54:49;28.10;78.60
13794;DHT22;31160;49.500;7.772;2022-07-22T11:57:16;28.20;78.90
13794;DHT22;31160;49.500;7.772;2022-07-22T11:59:43;28.30;78.00
13794;DHT22;31160;49.500;7.772;2022-07-22T12:02:10;28.40;77.80
13794;DHT22;31160;49.500;7.772;2022-07-22T12:04:41;28.70;77.70
13794;DHT22;31160;49.500;7.772;2022-07-22T12:07:10;28.50;77.70
13794;DHT22;31160;49.500;7.772;2022-07-22T12:09:38;28.70;76.40
13794;DHT22;31160;49.500;7.772;2022-07-22T12:12:08;28.50;78.00
13794;DHT22;31160;49.500;7.772;2022-07-22T12:14:35;28.60;76.80
13794;DHT22;31160;49.500;7.772;2022-07-22T12:17:07;28.70;77.70
13794;DHT22;31160;49.500;7.772;2022-07-22T12:19:37;29.00;76.10
13794;DHT22;31160;49.500;7.772;2022-07-22T12:22:06;29.10;76.00
13794;DHT22;31160;49.500;7.772;2022-07-22T12:24:38;28.90;75.70
13794;DHT22;31160;49.500;7.772;2022-07-22T12:27:06;29.20;75.90
13794;DHT22;31160;49.500;7.772;2022-07-22T12:32:08;29.30;74.80
13794;DHT22;31160;49.500;7.772;2022-07-22T12:34:44;28.90;75.10
13794;DHT22;31160;49.500;7.772;2022-07-22T12:37:17;29.00;75.60
13794;DHT22;31160;49.500;7.772;2022-07-22T12:42:26;28.50;75.80
13794;DHT22;31160;49.500;7.772;2022-07-22T12:45:00;28.50;76.60
13794;DHT22;31160;49.500;7.772;2022-07-22T12:53:02;28.90;75.40
13794;DHT22;31160;49.500;7.772;2022-07-22T12:55:49;29.30;74.80
13794;DHT22;31160;49.500;7.772;2022-07-22T12:58:19;29.40;73.70
13794;DHT22;31160;49.500;7.772;2022-07-22T13:00:51;29.40;74.20
13794;DHT22;31160;49.500;7.772;2022-07-22T13:03:19;29.60;74.30
13794;DHT22;31160;49.500;7.772;2022-07-22T13:05:50;29.70;73.40
13794;DHT22;31160;49.500;7.772;2022-07-22T13:08:17;29.80;72.50
13794;DHT22;31160;49.500;7.772;2022-07-22T13:10:45;30.00;71.60
13794;DHT22;31160;49.500;7.772;2022-07-22T13:13:12;30.00;70.90
13794;DHT22;31160;49.500;7.772;2022-07-22T13:15:39;30.00;71.70
13794;DHT22;31160;49.500;7.772;2022-07-22T13:18:06;30.00;72.10
13794;DHT22;31160;49.500;7.772;2022-07-22T13:20:33;30.00;71.80
13794;DHT22;31160;49.500;7.772;2022-07-22T13:23:00;30.00;71.80
13794;DHT22;31160;49.500;7.772;2022-07-22T13:25:27;30.00;71.50
13794;DHT22;31160;49.500;7.772;2022-07-22T13:27:54;30.00;71.80
13794;DHT22;31160;49.500;7.772;2022-07-22T13:30:22;29.90;71.00
13794;DHT22;31160;49.500;7.772;2022-07-22T13:32:49;29.70;71.10
13794;DHT22;31160;49.500;7.772;2022-07-22T13:35:16;29.40;71.50
13794;DHT22;31160;49.500;7.772;2022-07-22T13:37:44;29.60;72.20
13794;DHT22;31160;49.500;7.772;2022-07-22T13:40:12;29.80;71.40
13794;DHT22;31160;49.500;7.772;2022-07-22T13:42:39;29.90;71.20
13794;DHT22;31160;49.500;7.772;2022-07-22T13:45:06;30.00;71.00
13794;DHT22;31160;49.500;7.772;2022-07-22T13:47:35;30.10;70.90
13794;DHT22;31160;49.500;7.772;2022-07-22T13:50:03;29.90;70.60
13794;DHT22;31160;49.500;7.772;2022-07-22T13:52:30;30.10;69.40
13794;DHT22;31160;49.500;7.772;2022-07-22T13:54:56;30.20;69.30
13794;DHT22;31160;49.500;7.772;2022-07-22T13:57:23;30.30;69.10
13794;DHT22;31160;49.500;7.772;2022-07-22T13:59:50;30.40;70.40
13794;DHT22;31160;49.500;7.772;2022-07-22T14:02:17;30.70;68.90
13794;DHT22;31160;49.500;7.772;2022-07-22T14:04:44;30.70;68.50
13794;DHT22;31160;49.500;7.772;2022-07-22T14:07:11;30.60;68.90
13794;DHT22;31160;49.500;7.772;2022-07-22T14:09:38;30.20;68.50
13794;DHT22;31160;49.500;7.772;2022-07-22T14:12:06;30.10;69.50
13794;DHT22;31160;49.500;7.772;2022-07-22T14:14:33;30.00;69.40
13794;DHT22;31160;49.500;7.772;2022-07-22T14:16:59;30.30;69.10
13794;DHT22;31160;49.500;7.772;2022-07-22T14:19:28;30.60;67.90
13794;DHT22;31160;49.500;7.772;2022-07-22T14:21:55;30.40;67.30
13794;DHT22;31160;49.500;7.772;2022-07-22T14:24:22;30.00;68.90
13794;DHT22;31160;49.500;7.772;2022-07-22T14:26:51;30.10;68.50
13794;DHT22;31160;49.500;7.772;2022-07-22T14:29:18;30.20;67.70
13794;DHT22;31160;49.500;7.772;2022-07-22T14:31:44;30.10;67.70
13794;DHT22;31160;49.500;7.772;2022-07-22T14:34:12;30.10;67.70
13794;DHT22;31160;49.500;7.772;2022-07-22T14:36:39;30.20;68.00
13794;DHT22;31160;49.500;7.772;2022-07-22T14:39:06;30.30;68.60
13794;DHT22;31160;49.500;7.772;2022-07-22T14:41:33;30.50;68.00
13794;DHT22;31160;49.500;7.772;2022-07-22T14:44:00;30.30;67.00
13794;DHT22;31160;49.500;7.772;2022-07-22T14:46:27;30.30;67.60
13794;DHT22;31160;49.500;7.772;2022-07-22T14:48:54;30.10;68.00
13794;DHT22;31160;49.500;7.772;2022-07-22T14:51:21;29.90;68.10
13794;DHT22;31160;49.500;7.772;2022-07-22T14:53:49;29.90;68.40
13794;DHT22;31160;49.500;7.772;2022-07-22T14:56:16;30.20;67.90
13794;DHT22;31160;49.500;7.772;2022-07-22T14:58:44;30.20;67.80
13794;DHT22;31160;49.500;7.772;2022-07-22T15:01:11;30.40;66.60
13794;DHT22;31160;49.500;7.772;2022-07-22T15:03:40;30.50;66.80
13794;DHT22;31160;49.500;7.772;2022-07-22T15:06:08;30.70;66.20
13794;DHT22;31160;49.500;7.772;2022-07-22T15:08:36;30.80;65.50
13794;DHT22;31160;49.500;7.772;2022-07-22T15:11:03;30.60;66.70
13794;DHT22;31160;49.500;7.772;2022-07-22T15:13:30;30.60;65.60
13794;DHT22;31160;49.500;7.772;2022-07-22T15:15:57;30.50;65.40
13794;DHT22;31160;49.500;7.772;2022-07-22T15:18:24;30.40;65.50
13794;DHT22;31160;49.500;7.772;2022-07-22T15:20:52;30.40;67.40
13794;DHT22;31160;49.500;7.772;2022-07-22T15:23:25;30.40;65.80
13794;DHT22;31160;49.500;7.772;2022-07-22T15:25:55;30.50;65.80
13794;DHT22;31160;49.500;7.772;2022-07-22T15:28:22;30.60;66.10
13794;DHT22;31160;49.500;7.772;2022-07-22T15:31:05;30.80;65.20
13794;DHT22;31160;49.500;7.772;2022-07-22T15:33:32;30.90;63.60
13794;DHT22;31160;49.500;7.772;2022-07-22T15:36:06;30.90;64.30
13794;DHT22;31160;49.500;7.772;2022-07-22T15:38:34;31.10;64.60
13794;DHT22;31160;49.500;7.772;2022-07-22T15:41:02;30.90;63.70
13794;DHT22;31160;49.500;7.772;2022-07-22T15:43:29;30.90;63.20
13794;DHT22;31160;49.500;7.772;2022-07-22T15:45:56;30.70;63.50
13794;DHT22;31160;49.500;7.772;2022-07-22T15:48:23;30.50;63.90
13794;DHT22;31160;49.500;7.772;2022-07-22T15:50:50;30.50;64.50
13794;DHT22;31160;49.500;7.772;2022-07-22T15:53:17;30.50;64.30
13794;DHT22;31160;49.500;7.772;2022-07-22T15:55:47;30.50;64.00
13794;DHT22;31160;49.500;7.772;2022-07-22T15:58:14;30.50;63.90
13794;DHT22;31160;49.500;7.772;2022-07-22T16:01:00;30.40;66.40
13794;DHT22;31160;49.500;7.772;2022-07-22T16:03:27;30.40;63.40
13794;DHT22;31160;49.500;7.772;2022-07-22T16:05:54;30.30;63.90